FW1216 Weather Reports


Display with metric or nautical units.
time (UTC)temp
F
wind
direction
speed
MPH
gust
MPH
rain 1hr
in
rain 24hr
in
rain mn
in
humidity
%
barometer
mb
20190224054035 37 257 5.0 9.0 0.00 0.09 0.09 76 1016.5
20190224053535 37 261 5.0 12.0 0.00 0.09 0.09 77 1016.4
20190224053035 37 303 5.0 12.0 0.00 0.09 0.09 76 1016.4
20190224052535 37 284 5.0 12.0 0.00 0.09 0.09 76 1016.3
20190224052033 37 265 6.0 12.0 0.00 0.09 0.09 75 1016.0
20190224051534 37 285 7.0 13.0 0.00 0.09 0.09 75 1015.9
20190224051053 37 271 7.0 13.0 0.00 0.09 0.09 74 1015.9
20190224050532 37 255 6.0 13.0 0.00 0.09 0.09 76 1015.8
20190224050033 37 237 7.0 15.0 0.00 0.09 0.09 76 1015.7
20190224045533 37 275 8.0 15.0 0.00 0.09 0.09 75 1015.4
20190224045031 37 273 7.0 14.0 0.00 0.09 0.09 75 1015.1
20190224044531 37 294 8.0 14.0 0.00 0.09 0.09 75 1014.9
20190224044031 37 261 8.0 19.0 0.00 0.09 0.09 75 1014.8
20190224043532 37 258 8.0 19.0 0.00 0.09 0.09 75 1014.7
20190224043031 37 259 9.0 19.0 0.00 0.09 0.09 74 1014.6
20190224042531 38 312 9.0 19.0 0.00 0.09 0.09 74 1014.4
20190224042029 38 253 8.0 13.0 0.00 0.09 0.09 74 1014.3
20190224041530 38 286 6.0 15.0 0.00 0.09 0.09 75 1014.2
20190224041029 38 287 6.0 15.0 0.00 0.09 0.09 76 1014.2
20190224040527 38 265 6.0 14.0 0.00 0.09 0.09 75 1014.0
20190224040027 38 297 6.0 14.0 0.00 0.09 0.09 75 1013.7
20190224035527 38 271 7.0 16.0 0.00 0.09 0.09 75 1013.6
20190224035027 38 286 8.0 16.0 0.00 0.09 0.09 74 1013.5
20190224034527 38 267 8.0 15.0 0.00 0.09 0.09 74 1013.5
20190224032527 38 258 8.0 20.0 0.00 0.09 0.09 73 1012.9
20190224032027 38 275 10.0 20.0 0.00 0.09 0.09 73 1012.8
20190224031527 38 286 12.0 20.0 0.00 0.09 0.09 72 1012.8
20190224031027 39 254 13.0 22.0 0.00 0.09 0.09 73 1012.3
20190224030528 39 254 11.0 22.0 0.00 0.09 0.09 72 1012.0
20190224030027 40 267 9.0 22.0 0.00 0.09 0.09 72 1011.7
20190224025527 40 271 12.0 22.0 0.00 0.09 0.09 73 1011.4
20190224025027 40 273 14.0 21.0 0.00 0.09 0.09 72 1011.1
20190224024527 41 272 13.0 21.0 0.00 0.09 0.09 72 1010.9
20190224024024 41 261 11.0 19.0 0.00 0.09 0.09 72 1010.8
20190224023523 41 289 11.0 22.0 0.00 0.09 0.09 73 1010.5
20190224023023 41 264 10.0 22.0 0.00 0.09 0.09 73 1010.5
20190224022522 42 252 11.0 24.0 0.00 0.09 0.09 72 1010.4
20190224022023 42 263 11.0 25.0 0.00 0.09 0.09 73 1010.1
20190224021524 42 253 11.0 25.0 0.00 0.09 0.09 72 1010.1
20190224021022 42 268 12.0 26.0 0.00 0.09 0.09 73 1009.8
20190224020534 42 266 13.0 26.0 0.00 0.09 0.09 73 1009.5
20190224020022 42 261 12.0 22.0 0.00 0.09 0.09 73 1009.3
20190224015528 42 261 13.0 22.0 0.00 0.09 0.09 72 1009.1
20190224015021 43 264 13.0 25.0 0.00 0.09 0.09 73 1009.0
20190224014521 43 245 13.0 25.0 0.00 0.09 0.09 71 1008.7
20190224014021 44 250 15.0 29.0 0.00 0.09 0.09 71 1008.7
20190224013520 44 277 17.0 29.0 0.00 0.09 0.09 70 1008.3
20190224013019 45 254 15.0 27.0 0.00 0.09 0.09 70 1008.0
20190224012519 46 273 15.0 27.0 0.00 0.09 0.09 70 1007.9
20190224012019 46 263 16.0 27.0 0.00 0.09 0.09 68 1007.4
20190224011519 47 248 15.0 26.0 0.00 0.09 0.09 68 1007.0
20190224011019 48 265 13.0 23.0 0.00 0.09 0.09 66 1006.6
20190224010519 49 269 13.0 23.0 0.00 0.09 0.09 66 1006.4
20190224010020 50 253 15.0 24.0 0.00 0.09 0.09 63 1006.0
20190224005520 51 252 11.0 24.0 0.00 0.09 0.09 63 1005.8
20190224004017 56 258 14.0 30.0 0.00 0.09 0.09 56 1004.9
20190224003517 57 252 15.0 30.0 0.00 0.09 0.09 53 1004.1
20190224003017 58 238 14.0 25.0 0.00 0.09 0.09 43 1003.3
20190224002517 59 244 13.0 24.0 0.00 0.09 0.09 42 1003.0
20190224002017 59 239 12.0 24.0 0.00 0.09 0.09 42 1002.9
20190224001517 59 234 11.0 24.0 0.00 0.09 0.09 41 1002.7
20190224001017 59 271 12.0 23.0 0.00 0.09 0.09 40 1002.8
20190224000521 59 248 12.0 21.0 0.00 0.09 0.09 41 1002.7
20190224000017 59 232 12.0 26.0 0.00 0.09 0.09 41 1002.7
20190223235517 59 259 13.0 26.0 0.00 0.09 0.09 41 1002.7
20190223235014 59 222 16.0 32.0 0.00 0.09 0.09 39 1002.7
20190223234521 59 253 18.0 32.0 0.00 0.09 0.09 39 1002.6
20190223234014 60 254 17.0 32.0 0.00 0.09 0.09 38 1002.6
20190223233514 60 237 14.0 32.0 0.00 0.09 0.09 39 1002.4
20190223233015 59 255 14.0 25.0 0.00 0.09 0.09 38 1002.5
20190223232515 60 242 14.0 25.0 0.00 0.09 0.09 38 1002.5
20190223232015 59 263 12.0 22.0 0.00 0.09 0.09 39 1002.6
20190223231515 59 241 14.0 24.0 0.00 0.09 0.09 40 1002.5
20190223231014 60 235 15.0 24.0 0.00 0.09 0.09 38 1002.6
20190223230515 60 240 14.0 23.0 0.00 0.09 0.09 39 1002.6
20190223230015 60 247 16.0 31.0 0.00 0.09 0.09 38 1002.4
20190223225514 60 258 19.0 31.0 0.00 0.09 0.09 39 1002.3
20190223225013 60 259 19.0 31.0 0.00 0.09 0.09 38 1002.4
20190223224513 60 242 18.0 31.0 0.00 0.09 0.09 37 1002.3
20190223224010 60 258 18.0 30.0 0.00 0.09 0.09 37 1002.1
20190223223510 60 247 19.0 29.0 0.00 0.09 0.09 37 1002.2
20190223223011 60 249 19.0 30.0 0.00 0.09 0.09 37 1002.2
20190223222508 60 236 19.0 30.0 0.00 0.09 0.09 38 1001.9
20190223222009 60 250 17.0 30.0 0.00 0.09 0.09 37 1002.2
20190223221509 60 250 13.0 30.0 0.00 0.09 0.09 39 1002.2
20190223221007 60 228 14.0 25.0 0.00 0.09 0.09 40 1002.1
20190223220506 59 254 17.0 28.0 0.00 0.09 0.09 39 1002.2
20190223220007 59 238 17.0 27.0 0.00 0.09 0.09 40 1002.3
20190223215507 60 265 19.0 34.0 0.00 0.09 0.09 38 1002.3
20190223215006 60 240 19.0 34.0 0.00 0.09 0.09 37 1002.1
20190223214507 60 221 18.0 33.0 0.00 0.09 0.09 38 1002.0
20190223214004 60 253 19.0 33.0 0.00 0.09 0.09 36 1002.1
20190223213504 60 197 18.0 28.0 0.00 0.09 0.09 36 1002.0
20190223213004 61 244 16.0 29.0 0.00 0.09 0.09 37 1001.9
20190223212505 61 238 15.0 29.0 0.00 0.09 0.09 34 1001.6
20190223212005 61 252 15.0 27.0 0.00 0.09 0.09 37 1001.7
20190223211503 61 286 15.0 27.0 0.00 0.09 0.09 35 1001.5
20190223211003 61 263 13.0 27.0 0.00 0.09 0.09 34 1001.5
20190223210503 61 249 13.0 25.0 0.00 0.09 0.09 37 1001.5
20190223210003 61 239 13.0 27.0 0.00 0.09 0.09 37 1001.6
20190223205504 61 216 14.0 27.0 0.00 0.09 0.09 37 1001.5
20190223205002 61 234 14.0 27.0 0.00 0.09 0.09 38 1001.6
20190223204502 61 243 13.0 27.0 0.00 0.09 0.09 37 1001.4
20190223204002 61 224 14.0 25.0 0.00 0.09 0.09 36 1001.3
20190223203502 62 219 13.0 25.0 0.00 0.09 0.09 36 1001.4
20190223203002 61 228 11.0 25.0 0.00 0.09 0.09 41 1001.3
20190223202502 61 196 13.0 25.0 0.00 0.09 0.09 41 1001.2
20190223202002 61 229 14.0 25.0 0.00 0.09 0.09 41 1001.2
20190223201502 62 238 13.0 26.0 0.00 0.09 0.09 41 1001.2
20190223201002 61 254 14.0 26.0 0.00 0.09 0.09 41 1001.1
20190223200502 62 246 15.0 26.0 0.00 0.09 0.09 43 1001.2
20190223200003 62 231 13.0 26.0 0.00 0.09 0.09 43 1001.3
20190223195502 62 234 12.0 26.0 0.00 0.09 0.09 44 1001.4
20190223195002 62 265 12.0 26.0 0.00 0.09 0.09 44 1001.4
20190223194501 62 252 13.0 26.0 0.00 0.09 0.09 42 1001.4
20190223194002 62 274 13.0 27.0 0.00 0.09 0.09 42 1001.5
20190223193502 62 243 12.0 27.0 0.00 0.09 0.09 42 1001.5
20190223193002 62 271 12.0 23.0 0.00 0.09 0.09 46 1001.5
20190223192502 62 267 12.0 28.0 0.00 0.09 0.09 47 1001.3
20190223192001 62 271 13.0 28.0 0.00 0.09 0.09 46 1001.6
20190223191501 62 261 12.0 26.0 0.00 0.09 0.09 46 1001.5
20190223191002 62 269 13.0 31.0 0.00 0.09 0.09 51 1001.7
20190223190501 61 236 14.0 31.0 0.00 0.09 0.09 52 1001.8
20190223190002 62 259 11.0 27.0 0.00 0.09 0.09 54 1001.8
20190223185502 62 234 10.0 23.0 0.00 0.09 0.09 56 1002.0
20190223185003 62 293 10.0 23.0 0.00 0.09 0.09 56 1002.0
20190223184503 62 237 9.0 20.0 0.00 0.09 0.09 56 1002.2
20190223184002 62 223 10.0 22.0 0.00 0.09 0.09 55 1002.2
20190223183502 62 273 10.0 22.0 0.00 0.09 0.09 54 1002.3
20190223183002 62 265 11.0 24.0 0.00 0.09 0.09 55 1002.3
20190223182502 62 236 12.0 24.0 0.00 0.09 0.09 54 1002.3
20190223182001 62 182 10.0 23.0 0.00 0.09 0.09 53 1002.3
20190223181502 62 264 8.0 18.0 0.00 0.09 0.09 55 1002.4
20190223181002 62 234 8.0 18.0 0.00 0.09 0.09 57 1002.5
20190223180501 62 255 8.0 16.0 0.00 0.09 0.09 66 1002.6
20190223180002 62 188 8.0 16.0 0.00 0.09 0.09 65 1002.3
20190223175501 62 190 8.0 16.0 0.00 0.09 0.09 68 1002.6
20190223175002 62 244 8.0 16.0 0.00 0.09 0.09 70 1002.8
20190223174501 62 233 8.0 16.0 0.00 0.09 0.09 70 1002.8
20190223174003 62 265 7.0 16.0 0.00 0.09 0.09 71 1002.9
20190223173502 62 265 6.0 12.0 0.00 0.09 0.09 74 1002.9
20190223172958 61 207 6.0 13.0 0.00 0.09 0.09 78 1002.9
20190223172458 61 269 7.0 18.0 0.00 0.09 0.09 79 1003.0
20190223171959 61 276 7.0 18.0 0.00 0.09 0.09 79 1003.0
20190223171458 61 182 6.0 13.0 0.00 0.09 0.09 82 1003.1
20190223170958 60 261 6.0 12.0 0.00 0.09 0.09 86 1003.4
20190223170457 60 236 6.0 14.0 0.00 0.09 0.09 88 1003.6
20190223165956 59 267 7.0 20.0 0.00 0.09 0.09 87 1003.7
20190223165456 59 275 9.0 23.0 0.00 0.09 0.09 88 1003.7
20190223164956 59 265 10.0 23.0 0.00 0.09 0.09 87 1003.8
20190223164456 59 261 11.0 19.0 0.00 0.09 0.09 88 1003.8
20190223163956 59 247 11.0 18.0 0.00 0.09 0.09 88 1003.8
20190223163455 59 242 9.0 16.0 0.00 0.09 0.09 87 1003.6
20190223162954 60 252 7.0 16.0 0.00 0.09 0.09 89 1003.7
20190223162454 60 248 6.0 14.0 0.00 0.09 0.09 90 1003.7
20190223161955 59 321 5.0 11.0 0.01 0.09 0.09 91 1003.7
20190223161454 59 242 5.0 10.0 0.01 0.09 0.09 92 1003.7
20190223160954 59 244 5.0 11.0 0.01 0.09 0.09 91 1003.7
20190223160453 59 175 4.0 11.0 0.01 0.09 0.09 91 1003.8
20190223155950 59 232 4.0 10.0 0.02 0.09 0.09 92 1003.9
20190223155450 59 206 4.0 8.0 0.02 0.09 0.09 92 1003.8
20190223154950 59 217 3.0 8.0 0.03 0.09 0.09 92 1004.0
20190223154450 59 240 3.0 8.0 0.03 0.09 0.09 93 1004.0
20190223153950 59 144 2.0 8.0 0.03 0.09 0.09 94 1004.1
20190223153450 58 171 3.0 7.0 0.04 0.09 0.09 95 1004.4
20190223152950 58 260 2.0 5.0 0.05 0.09 0.09 96 1004.5
20190223152450 57 98 1.0 6.0 0.05 0.09 0.09 97 1004.4
20190223151950 56 82 1.0 6.0 0.04 0.08 0.08 97 1004.6
20190223151447 55 76 1.0 4.0 0.04 0.08 0.08 97 1004.9
20190223150948 54 104 2.0 5.0 0.04 0.08 0.08 97 1005.4
20190223150447 52 85 2.0 5.0 0.04 0.08 0.08 97 1005.3
20190223145948 51 132 2.0 4.0 0.03 0.07 0.07 96 1005.8
20190223145448 51 261 1.0 4.0 0.03 0.07 0.07 96 1005.9
20190223144946 52 309 1.0 6.0 0.02 0.06 0.06 96 1005.9
20190223144446 53 309 2.0 6.0 0.02 0.06 0.06 97 1005.8
20190223143944 54 290 2.0 6.0 0.03 0.06 0.06 97 1005.8
20190223143444 53 94 1.0 4.0 0.02 0.05 0.05 97 1005.6
20190223142952 53 94 1.0 4.0 0.02 0.04 0.04 97 1005.5
20190223142444 53 94 2.0 4.0 0.02 0.04 0.04 97 1005.2
20190223141944 53 96 2.0 4.0 0.03 0.04 0.04 97 1005.3
20190223141444 53 82 1.0 4.0 0.03 0.04 0.04 97 1005.4
20190223140943 52 82 2.0 5.0 0.03 0.04 0.04 97 1005.7
20190223140442 52 82 3.0 5.0 0.03 0.04 0.04 97 1005.9
20190223135942 52 86 3.0 5.0 0.03 0.04 0.04 97 1005.9
20190223135443 51 88 3.0 6.0 0.04 0.04 0.04 97 1006.1
20190223134942 51 79 2.0 6.0 0.04 0.04 0.04 97 1006.2
20190223134442 51 86 2.0 5.0 0.04 0.04 0.04 96 1006.3
20190223133943 50 86 3.0 5.0 0.03 0.04 0.03 97 1006.8
20190223133442 50 92 3.0 5.0 0.03 0.04 0.03 96 1007.1
20190223132942 50 92 3.0 5.0 0.02 0.03 0.02 96 1006.8
20190223132442 49 92 2.0 5.0 0.02 0.03 0.02 96 1007.1
20190223131941 49 128 1.0 4.0 0.01 0.02 0.01 96 1007.5
20190223131441 49 140 2.0 4.0 0.01 0.03 0.01 96 1007.9
20190223130940 49 140 2.0 4.0 0.01 0.03 0.01 96 1007.8
20190223130440 49 140 1.0 2.0 0.01 0.03 0.01 96 1008.0
20190223125940 48 140 0.0 1.0 0.01 0.03 0.01 96 1008.1
20190223125440 48 140 1.0 2.0 0.00 0.02 0.00 96 1008.4
20190223124944 48 140 2.0 4.0 0.00 0.02 0.00 96 1008.4
20190223124443 48 140 2.0 4.0 0.00 0.02 0.00 96 1008.6
20190223123940 47 148 1.0 4.0 0.00 0.02 0.00 96 1008.8
20190223123448 47 209 0.0 2.0 0.00 0.02 0.00 96 1008.9
20190223122939 47 209 0.0 1.0 0.00 0.02 0.00 95 1009.0
20190223122438 47 209 1.0 2.0 0.00 0.02 0.00 95 1009.0
20190223121938 47 209 1.0 2.0 0.00 0.02 0.00 95 1009.3
20190223121437 47 209 0.0 2.0 0.00 0.02 0.00 95 1009.5
20190223120938 47 209 1.0 2.0 0.00 0.02 0.00 95 1009.4
20190223120438 47 209 1.0 4.0 0.00 0.02 0.00 95 1009.4
20190223115938 47 209 2.0 4.0 0.00 0.02 0.00 95 1009.3
20190223115437 48 209 2.0 5.0 0.00 0.02 0.00 95 1009.1
20190223114938 49 209 1.0 5.0 0.00 0.02 0.00 95 1009.0
20190223114438 49 114 1.0 2.0 0.00 0.02 0.00 96 1008.8
20190223113938 49 114 1.0 2.0 0.00 0.02 0.00 96 1008.8
20190223113436 49 114 1.0 4.0 0.00 0.02 0.00 96 1008.7
20190223112935 49 114 1.0 4.0 0.00 0.02 0.00 96 1008.8
20190223112435 49 114 2.0 4.0 0.00 0.02 0.00 96 1008.9
20190223111936 49 114 1.0 4.0 0.00 0.02 0.00 96 1008.9
20190223111435 49 128 1.0 2.0 0.00 0.02 0.00 96 1008.7
20190223110936 48 128 2.0 4.0 0.00 0.02 0.00 96 1009.0
20190223110435 48 128 2.0 4.0 0.00 0.02 0.00 95 1009.0
20190223105939 48 247 1.0 4.0 0.00 0.02 0.00 95 1009.0
20190223105451 48 248 1.0 2.0 0.00 0.02 0.00 95 1009.3
20190223104935 48 248 1.0 2.0 0.00 0.02 0.00 95 1009.4
20190223104436 48 248 1.0 3.0 0.00 0.02 0.00 95 1009.5
20190223103936 48 248 1.0 4.0 0.00 0.02 0.00 95 1009.5
20190223103435 48 248 1.0 4.0 0.00 0.02 0.00 95 1009.7
20190223102935 48 248 0.0 2.0 0.00 0.02 0.00 95 1009.5
20190223102436 49 248 0.0 2.0 0.00 0.02 0.00 95 1009.7
20190223101936 49 248 1.0 2.0 0.00 0.02 0.00 95 1009.6
20190223101434 49 248 1.0 2.0 0.00 0.02 0.00 95 1009.6
20190223100931 49 247 2.0 6.0 0.00 0.02 0.00 95 1009.4
20190223100432 50 247 2.0 6.0 0.00 0.02 0.00 95 1009.5
20190223095929 51 252 1.0 5.0 0.00 0.02 0.00 96 1009.3
20190223095429 51 82 0.0 4.0 0.00 0.02 0.00 96 1009.1
20190223094930 51 82 0.0 4.0 0.00 0.02 0.00 96 1008.9
20190223094428 51 82 1.0 6.0 0.00 0.02 0.00 96 1008.9
20190223093927 51 82 2.0 6.0 0.00 0.02 0.00 96 1008.9
20190223093427 51 90 3.0 6.0 0.00 0.02 0.00 96 1009.1
20190223092927 50 86 4.0 6.0 0.00 0.02 0.00 96 1009.2
20190223092428 50 87 3.0 5.0 0.00 0.02 0.00 96 1009.1
20190223091928 49 78 3.0 5.0 0.00 0.02 0.00 96 1009.4
20190223091425 48 79 1.0 5.0 0.00 0.02 0.00 96 1009.6
20190223090929 48 54 0.0 1.0 0.00 0.02 0.00 95 1010.0
20190223090437 48 54 0.0 1.0 0.00 0.02 0.00 95 1010.4
20190223085926 47 54 0.0 2.0 0.00 0.02 0.00 95 1010.4
20190223085426 47 54 0.0 2.0 0.00 0.02 0.00 95 1010.5
20190223084926 47 54 0.0 2.0 0.00 0.02 0.00 94 1010.5
20190223084426 47 54 1.0 2.0 0.00 0.02 0.00 94 1010.6
20190223083929 47 54 1.0 2.0 0.00 0.02 0.00 94 1011.1
20190223083426 47 55 1.0 2.0 0.00 0.02 0.00 94 1011.3
20190223082924 47 56 1.0 2.0 0.00 0.02 0.00 94 1011.3
20190223082424 47 56 1.0 2.0 0.00 0.02 0.00 94 1011.4
20190223081923 47 56 0.0 1.0 0.00 0.02 0.00 93 1011.5
20190223081424 46 56 0.0 1.0 0.00 0.02 0.00 92 1011.6
20190223080924 46 56 0.0 1.0 0.00 0.02 0.00 91 1011.7
20190223080423 47 56 0.0 1.0 0.00 0.02 0.00 91 1011.9
20190223075921 47 56 0.0 2.0 0.00 0.02 0.00 91 1012.3
20190223075422 47 56 1.0 4.0 0.00 0.02 0.00 90 1012.1
20190223074922 48 56 1.0 4.0 0.00 0.02 0.00 91 1012.1
20190223074422 48 56 0.0 2.0 0.00 0.02 0.00 92 1012.3
20190223073922 48 56 0.0 2.0 0.00 0.02 0.00 92 1012.5
20190223073422 49 56 0.0 2.0 0.00 0.02 0.00 92 1012.4
20190223072921 49 56 0.0 2.0 0.00 0.02 0.00 92 1012.4
20190223072421 49 56 0.0 1.0 0.00 0.02 0.00 92 1012.4
20190223071921 49 56 0.0 0.0 0.00 0.02 0.00 92 1012.5
20190223071422 49 56 0.0 1.0 0.00 0.02 0.00 92 1012.4
20190223070921 49 56 1.0 4.0 0.00 0.02 0.00 93 1012.3
20190223070421 50 56 2.0 4.0 0.00 0.02 0.00 93 1012.4
20190223065921 50 56 1.0 5.0 0.00 0.02 0.00 93 1012.5
20190223065422 50 78 1.0 5.0 0.00 0.02 0.00 93 1012.3
20190223064922 50 78 2.0 5.0 0.00 0.02 0.00 94 1012.1
20190223064421 50 78 3.0 5.0 0.00 0.02 0.00 93 1012.0
20190223063922 50 101 2.0 5.0 0.00 0.02 0.00 93 1012.0
20190223063421 50 80 3.0 6.0 0.00 0.02 0.00 93 1012.0
20190223062922 50 90 3.0 7.0 0.00 0.02 0.00 93 1012.1
20190223062421 49 93 3.0 7.0 0.00 0.02 0.00 93 1012.1
20190223061921 49 92 3.0 6.0 0.00 0.02 0.00 93 1012.0
20190223061421 49 90 3.0 6.0 0.00 0.02 0.00 93 1012.4
20190223060921 49 93 3.0 5.0 0.00 0.02 0.00 93 1012.4
20190223060422 49 96 2.0 5.0 0.00 0.02 0.00 93 1012.4
20190223055921 49 96 2.0 5.0 0.00 0.02 0.02 93 1012.5
20190223055421 49 97 3.0 6.0 0.00 0.02 0.02 93 1012.6
20190223054921 49 84 4.0 7.0 0.00 0.02 0.02 93 1012.6
20190223054422 49 97 4.0 7.0 0.00 0.02 0.02 93 1012.7